Elrosa, Minnesota
Current Conditions -  °F | °C
As of 6:52 AM on Thursday 27 Nov 2014 (Local Time) from KD39 Reporting Station
Clear Clear  
Wind Chill: -11°   Ceiling: Unl
Heat Index: -11°   Visibility: 10mi
Dew Point: -15°   Wind: 3mph
Humidity: 83%   Direction: 280°W
Pressure: 30.48"   Gusts: NA
Location:  45.56°N, 94.95°W
Report Text: KD39 271252Z AUTO 28003KT 10SM CLR M24/M26 A3048 RMK AO2 T12371259
Loading
Personal Weather Stations






























Interactive Weather Map New forecast layout! Learn more

10-Day Weather Forecast

Advertisements
Track Severe Weather on mobile